Terminal Aerodrome Forecast
Issued by NWS

Home | Current Version | Previous Version | Text Only | Print | Product List | Glossary On
Versions: 1 2 3 4 5 6 7 8 9 10 11 12 13 14 15
497
FTUS43 KMPX 111144
TAFRWF
TAF
KRWF 111144Z 1112/1212 08007KT 3SM -SN SCT007 OVC015
     FM111400 03005KT P6SM SCT015 OVC025
     FM112100 32008KT P6SM BKN020 OVC040
     FM120300 30010KT P6SM SCT025=

USA.gov is the U.S. government's official web portal to all federal, state and local government web resources and services.